createdAt,value
2019-04-11T00:00:31.867Z,8.20
2019-04-11T00:03:13.278Z,8.20
2019-04-11T00:05:54.910Z,8.10
2019-04-11T00:08:35.829Z,8.10
2019-04-11T00:11:18.127Z,8.10
2019-04-11T00:13:59.907Z,8.00
2019-04-11T00:16:41.544Z,8.00
2019-04-11T00:19:23.149Z,8.00
2019-04-11T00:22:03.955Z,8.00
2019-04-11T00:24:45.179Z,7.90
2019-04-11T00:27:26.739Z,7.90
2019-04-11T00:30:08.131Z,7.90
2019-04-11T00:32:49.804Z,7.90
2019-04-11T00:35:31.366Z,7.90
2019-04-11T00:38:12.063Z,7.80
2019-04-11T00:40:53.337Z,7.80
2019-04-11T00:43:38.998Z,7.80
2019-04-11T00:46:16.725Z,7.70
2019-04-11T00:48:57.777Z,7.80
2019-04-11T00:51:38.639Z,7.70
2019-04-11T00:54:20.119Z,7.70
2019-04-11T00:57:00.925Z,7.70
2019-04-11T00:59:42.630Z,7.60
2019-04-11T01:02:24.983Z,7.60
2019-04-11T01:05:07.538Z,7.50
2019-04-11T01:07:49.178Z,7.50
2019-04-11T01:10:30.419Z,7.50
2019-04-11T01:18:52.032Z,7.40
2019-04-11T01:21:34.791Z,7.40
2019-04-11T01:24:16.048Z,7.30
2019-04-11T01:26:57.454Z,7.30
2019-04-11T01:29:39.714Z,7.20
2019-04-11T01:35:06.879Z,7.30
2019-04-11T01:40:33.903Z,7.30
2019-04-11T01:43:15.595Z,7.30
2019-04-11T01:45:57.929Z,7.20
2019-04-11T01:51:50.230Z,7.10
2019-04-11T01:54:32.083Z,7.10
2019-04-11T01:57:13.783Z,7.10
2019-04-11T01:59:55.466Z,7.10
2019-04-11T02:05:41.145Z,7.10
2019-04-11T02:08:23.035Z,7.10
2019-04-11T02:11:03.991Z,7.10
2019-04-11T02:13:44.583Z,7.10
2019-04-11T02:16:25.392Z,7.10
2019-04-11T02:19:06.230Z,7.00
2019-04-11T02:21:47.763Z,7.00
2019-04-11T02:27:40.060Z,6.90
2019-04-11T02:33:04.498Z,6.90
2019-04-11T02:35:47.042Z,6.90
2019-04-11T02:38:28.502Z,6.90
2019-04-11T02:41:11.705Z,6.90
2019-04-11T02:43:52.488Z,6.80
2019-04-11T02:46:42.442Z,6.80
2019-04-11T02:49:16.858Z,6.70
2019-04-11T02:51:58.562Z,6.70
2019-04-11T02:54:40.940Z,6.60
2019-04-11T02:57:23.477Z,6.60
2019-04-11T03:00:04.898Z,6.60
2019-04-11T03:02:47.851Z,6.60
2019-04-11T03:05:30.989Z,6.50
2019-04-11T03:08:19.270Z,6.40
2019-04-11T03:10:59.543Z,6.50
2019-04-11T03:13:41.998Z,6.50
2019-04-11T03:16:35.432Z,6.50
2019-04-11T03:19:21.180Z,6.40
2019-04-11T03:21:49.920Z,6.40
2019-04-11T03:27:17.941Z,6.40
2019-04-11T03:30:00.703Z,6.40
2019-04-11T03:33:49.745Z,6.40
2019-04-11T03:38:38.520Z,6.30
2019-04-11T03:43:45.832Z,6.30
2019-04-11T03:46:36.557Z,6.20
2019-04-11T03:49:07.240Z,6.20
2019-04-11T03:54:25.271Z,6.20
2019-04-11T03:59:54.509Z,6.10
2019-04-11T04:02:38.970Z,6.10
2019-04-11T04:08:06.128Z,6.00
2019-04-11T04:13:36.845Z,6.00
2019-04-11T04:50:13.446Z,5.70
2019-04-11T04:52:56.049Z,5.70
2019-04-11T04:55:37.654Z,5.70
2019-04-11T04:58:20.798Z,5.70
2019-04-11T05:01:03.653Z,5.70
2019-04-11T05:03:44.648Z,5.70
2019-04-11T05:06:24.336Z,5.70
2019-04-11T05:09:14.693Z,5.70
2019-04-11T05:12:03.538Z,5.60
2019-04-11T05:14:54.035Z,5.60
2019-04-11T05:17:44.429Z,5.60
2019-04-11T05:20:32.380Z,5.60
2019-04-11T05:23:14.007Z,5.60
2019-04-11T05:25:55.133Z,5.60
2019-04-11T05:28:35.834Z,5.70
2019-04-11T05:31:16.743Z,5.70
2019-04-11T05:33:59.161Z,5.70
2019-04-11T05:36:40.895Z,5.70
2019-04-11T05:39:21.847Z,5.70
2019-04-11T05:42:03.163Z,5.70
2019-04-11T05:44:45.121Z,5.70
2019-04-11T05:47:25.628Z,5.70
2019-04-11T05:50:26.360Z,5.70
2019-04-11T05:53:07.466Z,5.70
2019-04-11T05:55:48.566Z,5.80
2019-04-11T05:58:30.368Z,5.90
2019-04-11T06:04:15.187Z,5.90
2019-04-11T06:07:00.132Z,5.90
2019-04-11T06:12:50.502Z,5.90
2019-04-11T06:15:36.260Z,6.00
2019-04-11T06:26:58.914Z,6.20
2019-04-11T06:29:59.230Z,6.20
2019-04-11T06:33:00.301Z,6.30
2019-04-11T06:36:00.247Z,6.30
2019-04-11T06:38:49.133Z,6.40
2019-04-11T06:41:50.594Z,6.40
2019-04-11T06:44:56.433Z,6.50
2019-04-11T06:47:57.662Z,6.60
2019-04-11T06:50:58.171Z,6.70
2019-04-11T06:53:45.679Z,6.80
2019-04-11T06:56:34.896Z,6.80
2019-04-11T06:59:20.582Z,6.90
2019-04-11T07:02:13.739Z,6.90
2019-04-11T07:04:51.752Z,7.00
2019-04-11T07:07:35.245Z,7.00
2019-04-11T07:10:17.918Z,7.10
2019-04-11T07:13:03.471Z,7.10
2019-04-11T07:15:50.625Z,7.20
2019-04-11T07:18:53.298Z,7.20
2019-04-11T07:21:35.871Z,7.30
2019-04-11T07:24:37.436Z,7.40
2019-04-11T07:30:29.476Z,7.50
2019-04-11T07:33:31.012Z,7.60
2019-04-11T07:39:03.264Z,7.80
2019-04-11T07:41:45.581Z,7.90
2019-04-11T07:47:17.053Z,8.00
2019-04-11T07:52:34.215Z,8.00
2019-04-11T07:55:16.729Z,8.00
2019-04-11T08:00:47.207Z,8.10
2019-04-11T08:06:42.272Z,8.40
2019-04-11T08:12:12.887Z,8.50
2019-04-11T08:18:03.982Z,8.70
2019-04-11T08:23:29.854Z,8.90
2019-04-11T08:51:09.860Z,9.50
2019-04-11T08:54:10.139Z,9.70
2019-04-11T08:56:51.572Z,9.90
2019-04-11T08:59:51.436Z,10.00
2019-04-11T09:02:44.973Z,10.10
2019-04-11T09:05:53.314Z,10.20
2019-04-11T09:08:56.480Z,10.30
2019-04-11T09:11:58.224Z,10.30
2019-04-11T09:14:52.763Z,10.40
2019-04-11T09:17:38.673Z,10.50
2019-04-11T09:20:38.531Z,10.70
2019-04-11T09:23:21.850Z,10.70
2019-04-11T09:26:21.753Z,10.90
2019-04-11T09:29:04.030Z,11.00
2019-04-11T09:32:09.788Z,11.10
2019-04-11T09:34:58.252Z,11.30
2019-04-11T09:37:42.938Z,11.50
2019-04-11T09:40:43.779Z,11.70
2019-04-11T09:43:28.199Z,11.90
2019-04-11T09:46:27.807Z,12.10
2019-04-11T09:52:31.705Z,12.50
2019-04-11T09:55:31.296Z,12.60
2019-04-11T09:58:23.505Z,12.70
2019-04-11T10:01:20.267Z,12.80
2019-04-11T10:04:03.623Z,12.80
2019-04-11T10:07:01.406Z,13.00
2019-04-11T10:09:55.372Z,13.20
2019-04-11T10:12:56.286Z,13.30
2019-04-11T10:15:56.060Z,13.40
2019-04-11T10:18:55.871Z,13.60
2019-04-11T10:21:37.852Z,13.70
2019-04-11T10:24:36.740Z,14.00
2019-04-11T10:27:38.668Z,14.20
2019-04-11T10:30:38.275Z,14.40
2019-04-11T10:33:39.385Z,14.80
2019-04-11T10:36:23.149Z,15.20
2019-04-11T10:39:23.211Z,15.40
2019-04-11T10:42:06.879Z,15.40
2019-04-11T10:45:06.815Z,15.40
2019-04-11T10:47:49.270Z,15.30
2019-04-11T10:53:19.679Z,15.50
2019-04-11T10:56:19.451Z,15.60
2019-04-11T10:59:02.007Z,15.90
2019-04-11T11:02:02.245Z,16.20
2019-04-11T11:04:50.493Z,16.30
2019-04-11T11:07:33.219Z,16.50
2019-04-11T11:10:17.540Z,16.60
2019-04-11T11:13:18.157Z,16.70
2019-04-11T11:16:00.131Z,16.80
2019-04-11T11:19:27.402Z,17.00
2019-04-11T11:21:45.041Z,17.10
2019-04-11T11:24:51.091Z,17.40
2019-04-11T11:27:32.432Z,17.40
2019-04-11T11:33:16.278Z,17.40
2019-04-11T11:36:13.651Z,17.30
2019-04-11T11:39:14.898Z,17.30
2019-04-11T11:42:17.950Z,17.60
2019-04-11T11:45:03.802Z,17.60
2019-04-11T11:47:45.964Z,17.90
2019-04-11T11:53:13.042Z,18.10
2019-04-11T12:01:29.573Z,18.90
2019-04-11T12:04:14.800Z,18.80
2019-04-11T12:43:37.208Z,19.30
2019-04-11T12:46:37.448Z,19.30
2019-04-11T12:49:40.807Z,19.40
2019-04-11T12:52:40.528Z,19.50
2019-04-11T12:55:27.159Z,20.00
2019-04-11T12:58:14.155Z,20.10
2019-04-11T13:01:14.083Z,20.20
2019-04-11T13:04:17.251Z,20.00
2019-04-11T13:07:17.302Z,19.90
2019-04-11T13:10:17.399Z,19.90
2019-04-11T13:13:19.768Z,20.20
2019-04-11T13:16:11.970Z,19.80
2019-04-11T13:19:07.965Z,18.90
2019-04-11T13:21:51.838Z,18.80
2019-04-11T13:24:51.623Z,19.30
2019-04-11T13:27:36.819Z,19.70
2019-04-11T13:30:36.193Z,20.10
2019-04-11T13:33:25.095Z,20.40
2019-04-11T13:36:24.459Z,20.10
2019-04-11T13:39:06.364Z,20.20
2019-04-11T13:42:06.120Z,19.90
2019-04-11T13:44:46.459Z,19.80
2019-04-11T13:47:46.372Z,19.90
2019-04-11T13:50:28.254Z,19.90
2019-04-11T14:01:34.931Z,20.60
2019-04-11T14:04:21.587Z,20.70
2019-04-11T14:07:02.230Z,20.30
2019-04-11T14:09:45.943Z,20.20
2019-04-11T14:12:26.599Z,20.10
2019-04-11T14:15:10.947Z,20.10
2019-04-11T14:18:11.514Z,20.10
2019-04-11T14:20:56.828Z,20.20
2019-04-11T14:23:56.178Z,20.30
2019-04-11T14:26:38.927Z,20.20
2019-04-11T14:29:29.883Z,20.40
2019-04-11T14:32:29.855Z,20.50
2019-04-11T14:35:29.659Z,20.60
2019-04-11T14:38:15.361Z,20.40
2019-04-11T14:41:15.087Z,20.20
2019-04-11T14:43:58.847Z,20.30
2019-04-11T14:46:59.013Z,20.00
2019-04-11T14:49:40.748Z,19.70
2019-04-11T14:52:41.390Z,19.50
2019-04-11T14:55:22.841Z,19.40
2019-04-11T14:58:17.229Z,19.30
2019-04-11T15:00:57.994Z,19.00
2019-04-11T15:03:57.828Z,18.90
2019-04-11T15:06:44.742Z,18.80
2019-04-11T15:09:46.732Z,18.80
2019-04-11T15:12:29.679Z,18.90
2019-04-11T15:15:29.703Z,18.90
2019-04-11T15:18:10.048Z,18.90
2019-04-11T15:21:09.435Z,19.00
2019-04-11T15:23:51.218Z,19.10
2019-04-11T15:26:51.219Z,18.90
2019-04-11T15:29:34.035Z,18.90
2019-04-11T15:32:36.784Z,18.80
2019-04-11T15:35:17.831Z,18.90
2019-04-11T15:38:20.621Z,18.90
2019-04-11T15:41:01.822Z,18.90
2019-04-11T15:44:05.096Z,19.00
2019-04-11T15:46:47.614Z,19.10
2019-04-11T15:49:50.247Z,19.10
2019-04-11T15:52:30.618Z,19.00
2019-04-11T15:58:18.063Z,18.40
2019-04-11T16:01:17.211Z,18.30
2019-04-11T16:04:04.416Z,18.20
2019-04-11T16:07:05.801Z,18.40
2019-04-11T16:09:47.451Z,18.50
2019-04-11T16:12:34.943Z,18.60
2019-04-11T16:15:15.971Z,18.40
2019-04-11T16:18:19.482Z,18.20
2019-04-11T16:21:03.715Z,18.10
2019-04-11T16:23:52.048Z,18.00
2019-04-11T16:26:47.195Z,17.80
2019-04-11T16:29:32.703Z,17.70
2019-04-11T16:32:14.251Z,17.70
2019-04-11T16:35:14.537Z,17.50
2019-04-11T16:38:00.385Z,17.30
2019-04-11T16:40:56.860Z,17.00
2019-04-11T16:43:37.703Z,16.70
2019-04-11T16:46:18.632Z,16.40
2019-04-11T16:48:59.880Z,16.20
2019-04-11T16:51:40.231Z,16.00
2019-04-11T16:54:21.114Z,15.60
2019-04-11T16:57:01.561Z,15.00
2019-04-11T16:59:42.507Z,14.80
2019-04-11T17:02:24.343Z,14.50
2019-04-11T17:05:05.955Z,14.30
2019-04-11T17:13:34.756Z,13.50
2019-04-11T17:16:16.464Z,13.30
2019-04-11T17:21:48.089Z,13.10
2019-04-11T17:29:58.329Z,12.90
2019-04-11T17:40:58.605Z,12.60
2019-04-11T17:43:38.925Z,12.50
2019-04-11T17:46:19.514Z,12.30
2019-04-11T17:49:00.255Z,12.20
2019-04-11T17:51:42.798Z,12.10
2019-04-11T17:54:24.891Z,12.10
2019-04-11T17:57:06.610Z,11.90
2019-04-11T17:59:48.747Z,11.90
2019-04-11T18:02:29.503Z,11.90
2019-04-11T18:05:10.399Z,11.90
2019-04-11T18:07:51.543Z,11.80
2019-04-11T18:10:32.398Z,11.70
2019-04-11T18:13:13.311Z,11.60
2019-04-11T18:15:54.408Z,11.60
2019-04-11T18:18:36.569Z,11.50
2019-04-11T18:21:17.119Z,11.50
2019-04-11T18:23:57.847Z,11.50
2019-04-11T18:26:38.919Z,11.40
2019-04-11T18:29:22.819Z,11.30
2019-04-11T18:32:02.011Z,11.20
2019-04-11T18:34:42.631Z,11.00
2019-04-11T18:37:23.619Z,11.00
2019-04-11T18:40:08.037Z,11.00
2019-04-11T18:42:46.832Z,11.00
2019-04-11T18:45:27.699Z,11.10
2019-04-11T18:48:08.918Z,11.10
2019-04-11T18:50:50.805Z,11.10
2019-04-11T18:53:33.279Z,11.00
2019-04-11T18:56:14.494Z,10.90
2019-04-11T18:58:55.262Z,10.90
2019-04-11T19:01:39.075Z,10.90
2019-04-11T19:04:18.242Z,10.80
2019-04-11T19:06:58.726Z,10.70
2019-04-11T19:09:39.338Z,10.60
2019-04-11T19:12:19.981Z,10.50
2019-04-11T19:15:00.319Z,10.40
2019-04-11T19:17:40.969Z,10.40
2019-04-11T19:20:22.523Z,10.30
2019-04-11T19:23:07.663Z,10.30
2019-04-11T19:25:46.629Z,10.20
2019-04-11T19:28:27.389Z,10.20
2019-04-11T19:31:08.974Z,10.10
2019-04-11T19:33:50.353Z,10.10
2019-04-11T19:36:31.723Z,9.90
2019-04-11T19:39:13.948Z,9.80
2019-04-11T19:41:55.335Z,9.70
2019-04-11T19:44:36.462Z,9.70
2019-04-11T19:47:21.441Z,9.70
2019-04-11T19:50:00.231Z,9.60
2019-04-11T20:17:51.032Z,9.20
2019-04-11T20:26:08.348Z,9.10
2019-04-11T20:28:50.870Z,9.00
2019-04-11T20:31:31.485Z,8.80
2019-04-11T20:34:11.948Z,8.80
2019-04-11T20:36:52.664Z,8.70
2019-04-11T20:39:33.256Z,8.60
2019-04-11T20:42:17.001Z,8.70
2019-04-11T20:44:58.506Z,8.70
2019-04-11T20:47:39.620Z,8.60
2019-04-11T20:50:20.354Z,8.50
2019-04-11T20:53:12.022Z,8.50
2019-04-11T20:55:43.986Z,8.50
2019-04-11T20:58:27.565Z,8.50
2019-04-11T21:01:07.735Z,8.50
2019-04-11T21:03:48.447Z,8.50
2019-04-11T21:06:31.647Z,8.40
2019-04-11T21:09:13.367Z,8.30
2019-04-11T21:11:54.299Z,8.30
2019-04-11T21:14:35.092Z,8.30
2019-04-11T21:17:15.696Z,8.20
2019-04-11T21:19:56.914Z,8.30
2019-04-11T21:22:37.595Z,8.20
2019-04-11T21:25:18.303Z,8.30
2019-04-11T21:27:59.738Z,8.30
2019-04-11T21:30:40.839Z,8.30
2019-04-11T21:33:19.859Z,8.30
2019-04-11T21:36:07.696Z,8.20
2019-04-11T21:38:55.537Z,8.20
2019-04-11T21:41:45.331Z,8.20
2019-04-11T21:44:35.835Z,8.10
2019-04-11T21:47:23.262Z,8.10
2019-04-11T21:50:11.095Z,8.00
2019-04-11T21:52:59.243Z,7.90
2019-04-11T21:55:47.764Z,7.80
2019-04-11T21:58:37.186Z,7.80
2019-04-11T22:01:18.219Z,7.70
2019-04-11T22:03:59.474Z,7.70
2019-04-11T22:06:40.285Z,7.70
2019-04-11T22:09:21.375Z,7.70
2019-04-11T22:12:02.275Z,7.60
2019-04-11T22:14:43.116Z,7.60
2019-04-11T22:17:23.392Z,7.50
2019-04-11T22:20:04.388Z,7.50
2019-04-11T22:22:44.912Z,7.50
2019-04-11T22:25:25.471Z,7.40
2019-04-11T22:28:06.150Z,7.50
2019-04-11T22:30:47.579Z,7.50
2019-04-11T22:36:14.070Z,7.30
2019-04-11T22:38:54.897Z,7.30
2019-04-11T22:41:35.291Z,7.30
2019-04-11T22:44:15.894Z,7.20
2019-04-11T22:46:56.531Z,7.20
2019-04-11T22:49:39.511Z,7.20
2019-04-11T22:52:19.887Z,7.10
2019-04-11T22:55:00.899Z,7.10
2019-04-11T22:57:43.777Z,7.10
2019-04-11T23:00:24.613Z,7.10
2019-04-11T23:06:03.597Z,7.10
2019-04-11T23:08:44.079Z,7.10
2019-04-11T23:11:24.528Z,7.10
2019-04-11T23:14:05.426Z,7.10
2019-04-11T23:19:28.807Z,6.90
2019-04-11T23:24:51.248Z,6.80
2019-04-11T23:27:32.355Z,6.80
2019-04-11T23:30:15.962Z,6.80
2019-04-11T23:35:39.291Z,6.70
2019-04-11T23:41:02.541Z,6.70
2019-04-11T23:46:29.178Z,6.60
2019-04-11T23:49:13.130Z,6.60
